Time;durP1;ratioP1;P1;durP2;ratioP2;P2;SDS_P1;SDS_P2;PMS_P1;PMS_P2;Temp;Humidity;BMP_temperature;BMP_pressure;BME280_temperature;BME280_humidity;BME280_pressure;Samples;Min_cycle;Max_cycle;Signal;HPM_P1;HPM_P2
2023/09/22 00:00:41;;;;;;;13.40;7.90;;;;;;;17.58;100.00;100991.16;105777;1257;61206;-87
2023/09/22 00:03:09;;;;;;;10.80;7.20;;;;;;;17.57;100.00;100989.80;105918;1258;73404;-84
2023/09/22 00:05:39;;;;;;;15.90;8.00;;;;;;;17.49;100.00;100991.78;106046;1262;69134;-86
2023/09/22 00:08:09;;;;;;;15.20;8.50;;;;;;;17.50;100.00;100989.98;105920;1257;73127;-86
2023/09/22 00:10:37;;;;;;;14.30;8.80;;;;;;;17.52;100.00;100987.61;106097;1257;62068;-86
2023/09/22 00:13:04;;;;;;;13.20;8.90;;;;;;;17.50;100.00;100985.52;105994;1259;61258;-84
2023/09/22 00:15:34;;;;;;;16.20;8.90;;;;;;;17.43;100.00;100984.97;105999;1259;74650;-84
2023/09/22 00:18:01;;;;;;;14.40;9.20;;;;;;;17.40;100.00;100985.30;106038;1257;68697;-85
2023/09/22 00:20:29;;;;;;;11.70;7.60;;;;;;;17.48;100.00;100984.56;105768;1257;72324;-85
2023/09/22 00:22:56;;;;;;;13.00;8.00;;;;;;;17.55;100.00;100987.15;106020;1258;61228;-84
2023/09/22 00:25:23;;;;;;;13.50;8.20;;;;;;;17.50;100.00;100993.09;106304;1256;61253;-84
2023/09/22 00:27:50;;;;;;;11.90;7.90;;;;;;;17.39;100.00;100992.58;105867;1257;74653;-86
2023/09/22 00:30:17;;;;;;;11.80;8.10;;;;;;;17.39;100.00;100991.02;105836;1262;68827;-84
2023/09/22 00:32:44;;;;;;;13.70;9.00;;;;;;;17.45;100.00;100991.00;105982;1262;71458;-84
2023/09/22 00:35:13;;;;;;;14.40;9.20;;;;;;;17.36;100.00;100988.75;106154;1260;61254;-84
2023/09/22 00:37:41;;;;;;;18.00;9.70;;;;;;;17.30;100.00;100988.80;105896;1257;61278;-84
2023/09/22 00:40:09;;;;;;;18.70;9.30;;;;;;;17.32;100.00;100989.36;106324;1257;73336;-86
2023/09/22 00:42:37;;;;;;;17.40;9.10;;;;;;;17.31;100.00;100993.48;106124;1259;68525;-85
2023/09/22 00:45:04;;;;;;;13.00;8.50;;;;;;;17.24;100.00;100993.29;106029;1262;71211;-86
2023/09/22 00:47:32;;;;;;;15.20;8.60;;;;;;;17.26;100.00;100994.02;106067;1260;61247;-86
2023/09/22 00:49:59;;;;;;;14.50;8.10;;;;;;;17.31;100.00;100998.98;105939;1259;61145;-86
2023/09/22 00:52:27;;;;;;;12.70;7.80;;;;;;;17.28;100.00;101002.09;106389;1257;74694;-86
2023/09/22 00:54:54;;;;;;;14.50;8.60;;;;;;;17.26;100.00;101008.88;106058;1261;67211;-86
2023/09/22 00:57:21;;;;;;;14.90;9.50;;;;;;;17.15;100.00;101015.59;105842;1260;71482;-84
2023/09/22 00:59:48;;;;;;;14.10;8.90;;;;;;;17.27;100.00;101013.55;105988;1259;62724;-84
2023/09/22 01:02:22;;;;;;;14.30;8.70;;;;;;;17.37;100.00;101002.50;105898;1259;61209;-86
2023/09/22 01:04:50;;;;;;;14.50;8.70;;;;;;;17.38;100.00;101006.56;106072;1262;73511;-86
2023/09/22 01:07:17;;;;;;;12.10;8.40;;;;;;;17.34;100.00;101018.20;105907;1256;68641;-83
2023/09/22 01:09:45;;;;;;;15.10;8.50;;;;;;;17.30;100.00;101014.42;106257;1259;72529;-84
2023/09/22 01:12:13;;;;;;;15.20;8.50;;;;;;;17.11;100.00;101009.65;106170;1262;61263;-86
2023/09/22 01:14:40;;;;;;;16.30;9.50;;;;;;;16.98;100.00;101012.65;106086;1257;61154;-86
2023/09/22 01:17:07;;;;;;;16.00;9.40;;;;;;;16.96;100.00;101009.59;106034;1256;73093;-84
2023/09/22 01:19:35;;;;;;;16.20;9.80;;;;;;;16.87;100.00;101006.30;106180;1259;68114;-84
2023/09/22 01:22:05;;;;;;;14.70;8.50;;;;;;;17.04;100.00;101005.45;106073;1259;72481;-84
2023/09/22 01:24:32;;;;;;;16.30;8.20;;;;;;;17.12;100.00;101016.86;106086;1265;61180;-84
2023/09/22 01:26:59;;;;;;;14.30;8.80;;;;;;;17.08;100.00;101019.10;105953;1262;61107;-84
2023/09/22 01:29:26;;;;;;;13.40;8.20;;;;;;;16.96;100.00;101022.77;106079;1259;74579;-85
2023/09/22 01:31:53;;;;;;;13.10;8.40;;;;;;;16.94;100.00;101019.79;106325;1259;67234;-84
2023/09/22 01:34:21;;;;;;;12.70;7.70;;;;;;;16.99;100.00;101020.80;106079;1260;71204;-85
2023/09/22 01:36:48;;;;;;;16.40;8.30;;;;;;;16.92;100.00;101021.17;106004;1260;61379;-84
2023/09/22 01:39:18;;;;;;;13.30;8.50;;;;;;;16.98;100.00;101018.73;106072;1256;61148;-84
2023/09/22 01:41:45;;;;;;;13.40;8.70;;;;;;;17.00;100.00;101022.03;106025;1262;74693;-84
2023/09/22 01:44:12;;;;;;;13.90;8.40;;;;;;;16.98;100.00;101018.61;106272;1257;67649;-86
2023/09/22 01:46:39;;;;;;;13.50;8.50;;;;;;;17.00;100.00;101016.48;105940;1258;72333;-84
2023/09/22 01:49:06;;;;;;;14.70;8.60;;;;;;;17.00;100.00;101017.35;106007;1262;61353;-84
2023/09/22 01:51:33;;;;;;;12.80;8.40;;;;;;;17.06;100.00;101016.99;105967;1260;61211;-84
2023/09/22 01:54:00;;;;;;;13.20;8.30;;;;;;;17.11;100.00;101018.48;106087;1261;73417;-86
2023/09/22 01:56:27;;;;;;;11.60;8.00;;;;;;;17.08;100.00;101021.46;106087;1257;68967;-84
2023/09/22 01:58:54;;;;;;;14.70;8.30;;;;;;;17.02;100.00;101021.98;106183;1257;72736;-85
2023/09/22 02:01:22;;;;;;;16.80;8.60;;;;;;;16.94;100.00;101023.20;106279;1258;61401;-84
2023/09/22 02:03:54;;;;;;;19.00;9.30;;;;;;;16.85;100.00;101025.33;105966;1258;61266;-86
2023/09/22 02:06:21;;;;;;;15.90;8.10;;;;;;;16.83;100.00;101031.00;106013;1262;74623;-86
2023/09/22 02:08:48;;;;;;;13.40;8.40;;;;;;;16.82;100.00;101028.07;105944;1258;68849;-84
2023/09/22 02:11:16;;;;;;;12.60;8.40;;;;;;;16.82;100.00;101031.65;106058;1258;71460;-84
2023/09/22 02:13:43;;;;;;;14.60;8.70;;;;;;;16.83;100.00;101026.55;106055;1262;62034;-86
2023/09/22 02:16:11;;;;;;;14.30;8.80;;;;;;;16.81;100.00;101029.91;106550;1260;61185;-86
2023/09/22 02:18:38;;;;;;;13.90;8.70;;;;;;;16.81;100.00;101029.84;106054;1262;74687;-84
2023/09/22 02:21:06;;;;;;;19.30;9.90;;;;;;;16.77;100.00;101030.71;106026;1259;68729;-84
2023/09/22 02:23:33;;;;;;;16.30;9.20;;;;;;;16.76;100.00;101031.23;106056;1259;72737;-84
2023/09/22 02:26:06;;;;;;;14.30;9.30;;;;;;;16.72;100.00;101036.66;105939;1259;61412;-84
2023/09/22 02:28:34;;;;;;;15.80;8.70;;;;;;;16.68;100.00;101038.29;106058;1259;61171;-86
2023/09/22 02:31:01;;;;;;;15.10;9.10;;;;;;;16.66;100.00;101038.20;105981;1259;74511;-84
2023/09/22 02:33:29;;;;;;;12.90;8.80;;;;;;;16.60;100.00;101038.95;105955;1258;67597;-85
2023/09/22 02:35:56;;;;;;;17.00;8.30;;;;;;;16.54;100.00;101040.33;107026;1261;71119;-86
2023/09/22 02:38:25;;;;;;;17.20;8.20;;;;;;;16.46;100.00;101039.33;105926;1257;61627;-83
2023/09/22 02:40:52;;;;;;;16.30;9.10;;;;;;;16.39;100.00;101040.11;106156;1259;61353;-86
2023/09/22 02:43:19;;;;;;;12.90;8.80;;;;;;;16.46;100.00;101039.20;106013;1259;73541;-85
2023/09/22 02:45:46;;;;;;;14.60;8.20;;;;;;;16.46;100.00;101036.39;105883;1258;68742;-85
2023/09/22 02:48:13;;;;;;;13.80;8.80;;;;;;;16.49;100.00;101036.61;106043;1262;71224;-85
2023/09/22 02:50:40;;;;;;;17.90;9.10;;;;;;;16.43;100.00;101038.05;106028;1259;61784;-84
2023/09/22 02:53:07;;;;;;;16.90;9.90;;;;;;;16.37;100.00;101038.48;105992;1257;61157;-84
2023/09/22 02:55:37;;;;;;;19.60;10.50;;;;;;;16.46;100.00;101037.11;106034;1259;74664;-85
2023/09/22 02:58:04;;;;;;;15.70;9.50;;;;;;;16.47;100.00;101040.73;106163;1260;68506;-84
2023/09/22 03:00:31;;;;;;;12.00;8.40;;;;;;;16.43;100.00;101042.79;106088;1259;71414;-86
2023/09/22 03:02:58;;;;;;;12.80;8.50;;;;;;;16.39;100.00;101046.08;106030;1259;61082;-85
2023/09/22 03:05:25;;;;;;;12.80;8.10;;;;;;;16.31;100.00;101043.83;106143;1257;61285;-86
2023/09/22 03:07:55;;;;;;;14.80;8.80;;;;;;;16.34;100.00;101042.51;106204;1261;74451;-86
2023/09/22 03:10:22;;;;;;;13.80;9.10;;;;;;;16.28;100.00;101044.60;105968;1257;68678;-86
2023/09/22 03:12:51;;;;;;;12.30;7.80;;;;;;;16.13;100.00;101049.73;106228;1261;71538;-86
2023/09/22 03:15:19;;;;;;;15.60;8.90;;;;;;;16.01;100.00;101052.59;106788;1260;61354;-84
2023/09/22 03:17:46;;;;;;;16.70;9.30;;;;;;;16.09;100.00;101053.05;106140;1261;61333;-87
2023/09/22 03:20:13;;;;;;;19.00;9.70;;;;;;;16.10;100.00;101056.98;106152;1259;74724;-84
2023/09/22 03:22:42;;;;;;;16.90;9.10;;;;;;;16.06;100.00;101059.11;106081;1262;67491;-84
2023/09/22 03:25:10;;;;;;;14.40;9.30;;;;;;;16.06;100.00;101059.71;106300;1256;72631;-86
2023/09/22 03:27:38;;;;;;;16.10;9.90;;;;;;;16.11;100.00;101061.48;106145;1256;61275;-85
2023/09/22 03:30:08;;;;;;;16.80;10.80;;;;;;;16.15;100.00;101059.34;106051;1260;61288;-83
2023/09/22 03:32:35;;;;;;;18.70;10.70;;;;;;;16.18;100.00;101057.91;106067;1257;74506;-84
2023/09/22 03:35:07;;;;;;;17.40;10.70;;;;;;;16.21;100.00;101064.58;106011;1257;67265;-84
2023/09/22 03:37:35;;;;;;;20.40;11.30;;;;;;;16.26;100.00;101066.92;105989;1262;71802;-86
2023/09/22 03:40:20;;;;;;;15.00;9.40;;;;;;;16.24;100.00;101068.62;106213;1256;61362;-85
2023/09/22 03:42:47;;;;;;;14.50;9.50;;;;;;;16.25;100.00;101066.45;106228;1261;61278;-84
2023/09/22 03:45:15;;;;;;;15.10;9.20;;;;;;;16.29;100.00;101068.97;106184;1257;73248;-86
2023/09/22 03:47:42;;;;;;;16.40;10.60;;;;;;;16.26;100.00;101067.80;106240;1262;67453;-84
2023/09/22 03:50:10;;;;;;;13.80;9.70;;;;;;;16.27;100.00;101069.77;106043;1260;72557;-86
2023/09/22 03:52:38;;;;;;;22.40;12.40;;;;;;;16.36;100.00;101070.02;106085;1259;61248;-85
2023/09/22 03:55:06;;;;;;;18.90;11.90;;;;;;;16.39;100.00;101072.48;106197;1261;61290;-86
2023/09/22 03:57:33;;;;;;;18.10;11.10;;;;;;;16.44;100.00;101070.73;105971;1262;73399;-87
2023/09/22 04:00:00;;;;;;;17.80;11.30;;;;;;;16.49;100.00;101071.83;106058;1257;68842;-87
2023/09/22 04:02:29;;;;;;;19.70;11.80;;;;;;;16.55;100.00;101068.55;105957;1256;72658;-85
2023/09/22 04:04:56;;;;;;;22.80;11.20;;;;;;;16.67;100.00;101073.62;106122;1262;61216;-86
2023/09/22 04:07:24;;;;;;;14.50;10.00;;;;;;;16.75;100.00;101075.30;106158;1256;61302;-86
2023/09/22 04:09:51;;;;;;;16.40;10.60;;;;;;;16.87;100.00;101074.11;106025;1260;75029;-84
2023/09/22 04:12:18;;;;;;;16.80;9.90;;;;;;;16.91;100.00;101078.27;106044;1262;68005;-84
2023/09/22 04:14:45;;;;;;;18.80;10.10;;;;;;;16.95;100.00;101076.14;106116;1265;72769;-86
2023/09/22 04:17:12;;;;;;;20.30;10.60;;;;;;;17.09;100.00;101076.63;105993;1262;61328;-84
2023/09/22 04:19:40;;;;;;;18.80;10.50;;;;;;;17.11;100.00;101078.35;105890;1257;218914;-84
2023/09/22 04:22:11;;;;;;;17.30;10.50;;;;;;;17.23;100.00;101077.44;105893;1260;74481;-84
2023/09/22 04:24:47;;;;;;;19.50;10.70;;;;;;;17.37;100.00;101081.01;105913;1260;68524;-86
2023/09/22 04:27:14;;;;;;;14.90;9.70;;;;;;;17.53;100.00;101080.48;106015;1256;72936;-86
2023/09/22 04:29:41;;;;;;;17.20;10.10;;;;;;;17.60;100.00;101082.64;105837;1257;61369;-86
2023/09/22 04:32:08;;;;;;;19.90;9.50;;;;;;;17.69;100.00;101079.69;105995;1258;61277;-84
2023/09/22 04:34:35;;;;;;;18.40;8.50;;;;;;;17.80;100.00;101078.89;106260;1262;75516;-86
2023/09/22 04:37:04;;;;;;;14.40;8.80;;;;;;;17.88;100.00;101082.68;105947;1259;69141;-85
2023/09/22 04:39:34;;;;;;;12.90;9.40;;;;;;;18.03;100.00;101088.06;105993;1260;72645;-86
2023/09/22 04:42:02;;;;;;;15.40;9.10;;;;;;;18.12;100.00;101088.52;105968;1262;61243;-85
2023/09/22 04:44:30;;;;;;;16.80;9.70;;;;;;;18.25;100.00;101087.91;106521;1257;61331;-84
2023/09/22 04:46:57;;;;;;;15.00;9.80;;;;;;;18.47;100.00;101088.08;105953;1257;74701;-85
2023/09/22 04:49:25;;;;;;;14.30;8.90;;;;;;;18.59;100.00;101087.13;106283;1257;68779;-85
2023/09/22 04:51:51;;;;;;;16.80;10.30;;;;;;;18.73;100.00;101093.91;106123;1257;71176;-85
2023/09/22 04:54:19;;;;;;;17.70;9.80;;;;;;;18.94;100.00;101097.66;106060;1256;61964;-85
2023/09/22 04:56:46;;;;;;;21.10;9.40;;;;;;;19.07;100.00;101100.19;107015;1258;61165;-85
2023/09/22 04:59:16;;;;;;;15.20;9.90;;;;;;;19.22;100.00;101101.63;106023;1261;74663;-85
2023/09/22 05:01:43;;;;;;;18.30;11.00;;;;;;;19.42;100.00;101100.08;106051;1257;68920;-85
2023/09/22 05:04:11;;;;;;;20.00;9.60;;;;;;;19.60;100.00;101100.20;106034;1258;72436;-86
2023/09/22 05:06:38;;;;;;;21.40;9.90;;;;;;;19.71;100.00;101101.30;105954;1260;62319;-85
2023/09/22 05:09:07;;;;;;;17.30;9.50;;;;;;;19.82;100.00;101101.00;105913;1259;61181;-86
2023/09/22 05:11:34;;;;;;;34.20;11.20;;;;;;;19.87;100.00;101104.22;105892;1262;74910;-84
2023/09/22 05:14:03;;;;;;;19.20;9.10;;;;;;;20.06;100.00;101099.05;106611;1260;67117;-86
2023/09/22 05:16:31;;;;;;;18.80;10.00;;;;;;;20.20;100.00;101097.24;106025;1256;72663;-86
2023/09/22 05:18:59;;;;;;;16.50;9.50;;;;;;;20.38;100.00;101101.11;106261;1256;61333;-86
2023/09/22 05:21:26;;;;;;;24.10;10.00;;;;;;;20.65;100.00;101102.77;106071;1262;61359;-86
2023/09/22 05:23:54;;;;;;;18.20;10.10;;;;;;;20.97;100.00;101094.42;105958;1256;73383;-86
2023/09/22 05:26:21;;;;;;;15.50;9.40;;;;;;;21.02;100.00;101101.55;106562;1256;69076;-85
2023/09/22 05:28:49;;;;;;;25.80;12.00;;;;;;;21.22;100.00;101101.09;105876;1260;71463;-85
2023/09/22 05:31:17;;;;;;;18.90;9.80;;;;;;;21.41;100.00;101099.31;106106;1262;61350;-85
2023/09/22 05:33:44;;;;;;;23.60;11.10;;;;;;;21.62;100.00;101099.97;106039;1260;61266;-85
2023/09/22 05:36:12;;;;;;;30.20;12.10;;;;;;;21.96;100.00;101100.36;106048;1262;74673;-86
2023/09/22 05:38:40;;;;;;;23.50;10.30;;;;;;;22.16;100.00;101105.09;107031;1259;68740;-86
2023/09/22 05:41:08;;;;;;;28.00;11.80;;;;;;;22.40;100.00;101105.89;106038;1261;72341;-85
2023/09/22 05:43:35;;;;;;;22.10;9.80;;;;;;;22.66;100.00;101103.90;106189;1259;61310;-85
2023/09/22 05:46:03;;;;;;;15.50;7.90;;;;;;;23.03;100.00;101107.64;106327;1257;59841;-86
2023/09/22 05:48:30;;;;;;;12.80;7.40;;;;;;;23.33;100.00;101106.91;105979;1259;74643;-85
2023/09/22 05:50:59;;;;;;;13.30;7.30;;;;;;;23.55;100.00;101106.81;106098;1261;67353;-85
2023/09/22 05:53:27;;;;;;;14.70;6.80;;;;;;;23.90;98.79;101110.66;106151;1259;71272;-86
2023/09/22 05:56:10;;;;;;;14.40;7.80;;;;;;;24.21;95.35;101108.13;106087;1262;61169;-85
2023/09/22 05:58:38;;;;;;;14.00;7.70;;;;;;;24.54;92.59;101112.63;106050;1260;61200;-86
2023/09/22 06:01:09;;;;;;;14.60;8.60;;;;;;;24.81;90.06;101110.45;106131;1262;73136;-85
2023/09/22 06:03:38;;;;;;;16.10;7.40;;;;;;;25.03;87.10;101113.40;106079;1259;68469;-85
2023/09/22 06:06:09;;;;;;;16.80;7.00;;;;;;;25.36;84.55;101113.81;106370;1261;71660;-85
2023/09/22 06:08:38;;;;;;;12.90;7.10;;;;;;;25.55;80.20;101112.25;106238;1260;61254;-86
2023/09/22 06:11:05;;;;;;;15.10;6.80;;;;;;;25.65;78.34;101112.48;105959;1259;61235;-86
2023/09/22 06:13:33;;;;;;;10.80;6.50;;;;;;;25.76;76.63;101113.20;105974;1262;66139;-86
2023/09/22 06:16:01;;;;;;;10.50;6.30;;;;;;;26.04;74.07;101114.20;106527;1263;61285;-86
2023/09/22 06:18:28;;;;;;;12.20;5.60;;;;;;;26.30;71.15;101111.13;105994;1261;62823;-86
2023/09/22 06:20:56;;;;;;;18.00;6.50;;;;;;;26.54;68.28;101110.39;105981;1262;61262;-86
2023/09/22 06:23:23;;;;;;;9.80;5.40;;;;;;;26.71;66.77;101110.21;105988;1259;61231;-86
2023/09/22 06:25:51;;;;;;;10.00;4.50;;;;;;;26.92;65.09;101107.60;106065;1258;66096;-86
2023/09/22 06:28:18;;;;;;;10.90;4.70;;;;;;;27.02;63.10;101110.33;106059;1259;61189;-86
2023/09/22 06:31:30;;;;;;;7.70;4.20;;;;;;;27.27;62.13;101112.59;106106;1257;63747;-86
2023/09/22 06:34:43;;;;;;;7.40;5.20;;;;;;;27.51;60.57;101112.38;105891;1262;61233;-87
2023/09/22 06:37:54;;;;;;;11.00;4.80;;;;;;;27.73;59.01;101113.80;106002;1262;61263;-86
2023/09/22 06:41:06;;;;;;;9.80;4.50;;;;;;;27.84;57.44;101118.61;106042;1258;65757;-85
2023/09/22 06:44:17;;;;;;;9.30;4.80;;;;;;;27.99;56.09;101118.27;106399;1259;61359;-86
2023/09/22 06:47:28;;;;;;;9.50;5.00;;;;;;;28.19;56.02;101119.92;106032;1258;64169;-86
2023/09/22 06:50:40;;;;;;;11.30;4.40;;;;;;;28.34;56.95;101123.95;106030;1263;61358;-86
2023/09/22 06:53:52;;;;;;;8.30;4.80;;;;;;;28.48;58.03;101125.67;106099;1262;61236;-86
2023/09/22 06:57:12;;;;;;;12.40;5.10;;;;;;;28.60;56.60;101126.26;106104;1261;64908;-86
2023/09/22 07:00:28;;;;;;;12.10;6.30;;;;;;;28.70;54.87;101122.17;105934;1262;61342;-85
2023/09/22 07:03:41;;;;;;;20.40;8.00;;;;;;;28.89;55.62;101123.80;105832;1264;62707;-85
2023/09/22 07:06:56;;;;;;;12.20;5.80;;;;;;;29.03;55.17;101122.48;106047;1265;61340;-87
2023/09/22 07:10:11;;;;;;;9.90;6.00;;;;;;;29.20;53.80;101117.14;106042;1260;61340;-87
2023/09/22 07:13:22;;;;;;;7.40;4.50;;;;;;;29.33;53.04;101116.92;106010;1258;66093;-87
2023/09/22 07:16:34;;;;;;;20.00;11.10;;;;;;;29.54;52.26;101121.95;105981;1262;61298;-87
2023/09/22 07:19:48;;;;;;;13.90;8.70;;;;;;;29.65;50.56;101123.15;106124;1260;64037;-86
2023/09/22 07:22:59;;;;;;;14.20;6.60;;;;;;;29.74;49.44;101122.00;106050;1262;61184;-86
2023/09/22 07:26:11;;;;;;;11.30;6.40;;;;;;;29.83;49.65;101120.36;105907;1259;61176;-86
2023/09/22 07:29:23;;;;;;;9.80;5.90;;;;;;;29.99;49.63;101117.85;105893;1258;66480;-87
2023/09/22 07:32:34;;;;;;;13.00;5.90;;;;;;;30.15;49.65;101115.41;106028;1262;61331;-86
2023/09/22 07:35:46;;;;;;;10.00;6.30;;;;;;;30.21;51.14;101114.14;106044;1262;64137;-86
2023/09/22 07:38:57;;;;;;;12.90;8.40;;;;;;;30.26;53.16;101110.63;106020;1257;61310;-86
2023/09/22 07:42:09;;;;;;;15.00;10.10;;;;;;;30.35;55.63;101112.10;106070;1256;61240;-86
2023/09/22 07:45:20;;;;;;;17.40;8.80;;;;;;;30.41;59.57;101112.92;106214;1258;66212;-88
2023/09/22 07:48:31;;;;;;;17.50;9.20;;;;;;;30.58;60.82;101114.33;106162;1258;61373;-87
2023/09/22 07:51:43;;;;;;;15.70;8.90;;;;;;;30.68;63.33;101112.56;106055;1259;62673;-89
2023/09/22 07:54:55;;;;;;;20.00;9.30;;;;;;;30.65;62.13;101119.73;105948;1263;61355;-87
2023/09/22 07:58:09;;;;;;;14.40;8.70;;;;;;;30.75;59.99;101116.52;105972;1257;61272;-88
2023/09/22 08:01:21;;;;;;;14.10;7.30;;;;;;;30.74;59.30;101110.80;106094;1262;67255;-88
2023/09/22 08:04:33;;;;;;;17.80;8.50;;;;;;;30.69;58.34;101103.77;105908;1263;61135;-88
2023/09/22 08:07:27;;;;;;;;;;;;;;;30.60;57.63;101105.38;106377;1263;64572;-87
2023/09/22 08:10:41;;;;;;;10.00;6.30;;;;;;;30.70;56.69;101100.40;106063;1257;61306;-89
2023/09/22 08:13:54;;;;;;;12.20;6.50;;;;;;;30.81;54.59;101098.71;106038;1262;61238;-88
2023/09/22 08:17:07;;;;;;;9.70;6.60;;;;;;;30.80;52.92;101102.98;105920;1258;66026;-87
2023/09/22 08:20:20;;;;;;;10.70;6.60;;;;;;;30.85;51.08;101099.45;106181;1262;61149;-87
2023/09/22 08:23:33;;;;;;;12.50;6.60;;;;;;;30.95;49.67;101100.09;106000;1263;62507;-88
2023/09/22 08:27:01;;;;;;;13.30;5.90;;;;;;;30.91;48.40;101098.82;106005;1264;61160;-88
2023/09/22 08:30:15;;;;;;;14.50;5.50;;;;;;;30.99;47.43;101101.16;105912;1262;61340;-87
2023/09/22 08:33:26;;;;;;;9.50;5.30;;;;;;;31.16;44.18;101100.09;105957;1262;65727;-87
2023/09/22 08:36:39;;;;;;;9.80;5.70;;;;;;;31.16;43.42;101094.92;105885;1263;61301;-88
2023/09/22 08:39:55;;;;;;;6.60;4.40;;;;;;;31.29;42.68;101094.90;105891;1264;64079;-86
2023/09/22 08:43:09;;;;;;;8.80;4.70;;;;;;;31.42;40.78;101087.71;106129;1258;61304;-88
2023/09/22 08:46:22;;;;;;;9.20;4.60;;;;;;;31.48;40.03;101084.64;106263;1257;61155;-88
2023/09/22 08:49:35;;;;;;;8.30;4.40;;;;;;;31.47;39.41;101082.23;105887;1262;66209;-87
2023/09/22 08:52:51;;;;;;;6.10;4.40;;;;;;;31.53;38.13;101082.52;106033;1257;61370;-87
2023/09/22 08:56:06;;;;;;;17.60;5.30;;;;;;;31.56;38.03;101080.02;106050;1263;64147;-90
2023/09/22 08:59:20;;;;;;;6.70;4.20;;;;;;;31.52;37.99;101077.69;106054;1261;61445;-87
2023/09/22 09:02:37;;;;;;;4.80;3.80;;;;;;;31.55;37.38;101078.39;105976;1262;61252;-88
2023/09/22 09:06:01;;;;;;;5.40;4.10;;;;;;;31.64;35.98;101074.73;105837;1263;64652;-89
2023/09/22 09:09:16;;;;;;;4.90;3.60;;;;;;;31.65;35.95;101071.58;106055;1258;61309;-89
2023/09/22 09:12:33;;;;;;;7.80;3.80;;;;;;;31.83;36.36;101067.95;106036;1259;64166;-88
2023/09/22 09:15:47;;;;;;;6.70;3.70;;;;;;;31.87;35.37;101063.50;105995;1263;61318;-87
2023/09/22 09:19:00;;;;;;;6.30;4.10;;;;;;;31.83;34.80;101063.77;106136;1262;61151;-89
2023/09/22 09:22:13;;;;;;;5.10;3.80;;;;;;;31.85;34.73;101063.99;105991;1262;65752;-89
2023/09/22 09:25:09;;;;;;;;;;;;;;;32.03;34.54;101066.50;106488;1261;61319;-89
2023/09/22 09:28:21;;;;;;;4.60;3.80;;;;;;;32.16;34.15;101066.02;106491;1257;63879;-86
2023/09/22 09:31:34;;;;;;;6.50;3.90;;;;;;;32.15;33.29;101068.55;105968;1257;61294;-88
2023/09/22 09:34:46;;;;;;;5.80;3.80;;;;;;;32.15;32.12;101069.18;106020;1264;61314;-87
2023/09/22 09:37:40;;;;;;;;;;;;;;;32.07;32.86;101066.50;105985;1258;65892;-87
2023/09/22 09:40:58;;;;;;;8.30;4.00;;;;;;;32.03;32.71;101063.13;105979;1262;61272;-88
2023/09/22 09:44:14;;;;;;;12.80;4.30;;;;;;;32.02;32.45;101058.27;106011;1257;63729;-89
2023/09/22 09:47:30;;;;;;;5.50;3.60;;;;;;;32.03;32.75;101055.29;105930;1264;61280;-86
2023/09/22 09:50:44;;;;;;;8.10;4.20;;;;;;;31.95;31.96;101055.06;106060;1262;61305;-88
2023/09/22 09:53:57;;;;;;;4.20;3.80;;;;;;;31.88;31.76;101055.58;105898;1262;67166;-89
2023/09/22 09:57:11;;;;;;;5.90;3.80;;;;;;;32.00;32.02;101051.27;105960;1262;62098;-89
2023/09/22 10:00:24;;;;;;;5.00;3.80;;;;;;;32.04;31.25;101050.92;106380;1257;64020;-88
2023/09/22 10:03:36;;;;;;;6.20;4.10;;;;;;;32.06;31.63;101050.26;105974;1263;61281;-86
2023/09/22 10:06:29;;;;;;;;;;;;;;;32.11;31.75;101046.60;106154;1262;61261;-88
2023/09/22 10:09:54;;;;;;;7.10;3.70;;;;;;;32.08;31.54;101046.20;105958;1257;65917;-87
2023/09/22 10:13:08;;;;;;;4.90;3.60;;;;;;;32.12;31.27;101042.88;106092;1263;61358;-89
2023/09/22 10:16:21;;;;;;;5.10;3.50;;;;;;;32.07;31.27;101043.39;105985;1258;63742;-86
2023/09/22 10:19:35;;;;;;;11.50;4.10;;;;;;;32.03;31.48;101042.93;106167;1258;61230;-89
2023/09/22 10:22:48;;;;;;;6.20;3.90;;;;;;;32.17;31.66;101039.61;106660;1262;60112;-87
2023/09/22 10:26:03;;;;;;;6.90;3.90;;;;;;;32.21;32.13;101034.17;105944;1263;66165;-87
2023/09/22 10:29:16;;;;;;;5.90;4.00;;;;;;;32.12;32.44;101036.09;106195;1260;61163;-86
2023/09/22 10:32:30;;;;;;;8.70;4.20;;;;;;;32.09;32.83;101031.09;105912;1258;63054;-87
2023/09/22 10:35:43;;;;;;;6.80;4.20;;;;;;;32.14;33.31;101031.15;106255;1257;61225;-88
2023/09/22 10:38:58;;;;;;;6.40;3.80;;;;;;;32.27;33.51;101030.73;106048;1263;61170;-86
2023/09/22 10:42:11;;;;;;;4.90;3.50;;;;;;;32.30;33.46;101026.45;106100;1262;66483;-88
2023/09/22 10:45:29;;;;;;;5.20;3.20;;;;;;;32.33;33.12;101027.70;106099;1258;61277;-89
2023/09/22 10:48:42;;;;;;;4.40;3.00;;;;;;;32.32;33.42;101022.86;105980;1257;64204;-88
2023/09/22 10:51:57;;;;;;;7.50;3.10;;;;;;;32.42;33.39;101024.01;106311;1262;61295;-86
2023/09/22 10:55:12;;;;;;;6.00;3.10;;;;;;;32.58;32.86;101024.71;106045;1263;61236;-87
2023/09/22 10:58:26;;;;;;;6.50;2.80;;;;;;;32.59;32.75;101024.45;106003;1261;67096;-87
2023/09/22 11:01:40;;;;;;;5.60;3.30;;;;;;;32.39;32.84;101025.88;106518;1258;61254;-88
2023/09/22 11:04:53;;;;;;;4.40;3.30;;;;;;;32.30;33.20;101023.05;106052;1258;65220;-88
2023/09/22 11:08:06;;;;;;;5.60;3.00;;;;;;;32.41;32.70;101022.05;106062;1257;61208;-88
2023/09/22 11:11:20;;;;;;;3.90;2.90;;;;;;;32.57;32.58;101018.80;106235;1257;61277;-86
2023/09/22 11:14:33;;;;;;;4.80;3.20;;;;;;;32.64;32.58;101016.26;106292;1262;67003;-87
2023/09/22 11:17:47;;;;;;;6.80;3.30;;;;;;;32.67;32.85;101014.69;106026;1257;61353;-87
2023/09/22 11:21:02;;;;;;;5.40;3.20;;;;;;;32.54;32.86;101010.02;106068;1262;65548;-86
2023/09/22 11:24:15;;;;;;;4.50;3.00;;;;;;;32.55;33.07;101008.08;106146;1257;61313;-88
2023/09/22 11:27:29;;;;;;;4.40;3.00;;;;;;;32.54;32.74;101008.73;106170;1257;61145;-87
2023/09/22 11:30:41;;;;;;;4.60;3.30;;;;;;;32.52;32.95;101005.61;106133;1262;65998;-88
2023/09/22 11:33:55;;;;;;;3.80;3.10;;;;;;;32.45;33.18;101009.92;105990;1257;61939;-88
2023/09/22 11:37:08;;;;;;;5.00;3.30;;;;;;;32.43;33.56;101008.15;106621;1257;64987;-89
2023/09/22 11:40:25;;;;;;;4.60;3.40;;;;;;;32.18;33.93;101001.72;106052;1258;61240;-88
2023/09/22 11:43:38;;;;;;;4.30;3.20;;;;;;;32.02;34.09;100999.23;105812;1258;62143;-88
2023/09/22 11:46:52;;;;;;;4.10;3.30;;;;;;;31.94;34.34;100999.52;106067;1257;66162;-88
2023/09/22 11:50:06;;;;;;;5.50;3.50;;;;;;;31.88;34.10;101004.23;106299;1262;59787;-88
2023/09/22 11:53:18;;;;;;;6.40;3.30;;;;;;;31.73;34.77;100994.71;106058;1258;64795;-88
2023/09/22 11:56:30;;;;;;;7.30;3.60;;;;;;;31.81;34.78;100993.70;106117;1257;61208;-86
2023/09/22 11:59:42;;;;;;;5.80;3.50;;;;;;;31.78;34.98;100990.00;106045;1257;61251;-87
2023/09/22 12:02:54;;;;;;;6.90;3.50;;;;;;;31.69;34.73;100988.77;106664;1257;67063;-88
2023/09/22 12:06:05;;;;;;;5.60;3.50;;;;;;;31.69;34.86;100988.35;106043;1257;61279;-88
2023/09/22 12:09:17;;;;;;;6.50;3.90;;;;;;;31.71;35.31;100986.48;106009;1257;63836;-87
2023/09/22 12:12:31;;;;;;;5.20;3.50;;;;;;;31.73;35.30;100985.83;106035;1258;61337;-88
2023/09/22 12:15:43;;;;;;;4.30;3.50;;;;;;;31.77;35.48;100983.80;106511;1257;59943;-88
2023/09/22 12:18:55;;;;;;;8.00;4.20;;;;;;;31.88;35.00;100982.92;105898;1261;67214;-89
2023/09/22 12:22:10;;;;;;;6.00;4.00;;;;;;;32.00;34.88;100982.21;106528;1257;61333;-88
2023/09/22 12:25:24;;;;;;;8.40;3.90;;;;;;;32.06;34.89;100984.68;106078;1257;65103;-89
2023/09/22 12:28:40;;;;;;;8.00;4.30;;;;;;;32.16;34.40;100977.66;106637;1257;61272;-87
2023/09/22 12:31:53;;;;;;;5.20;4.20;;;;;;;32.16;33.92;100978.08;106350;1257;61343;-87
2023/09/22 12:35:08;;;;;;;6.80;4.00;;;;;;;32.21;34.32;100980.05;106565;1258;67019;-86